KGSH

Goshen Municipal Airport

Goshen, Indiana, USA
METAR KGSH 220353Z AUTO 12009KT 10SM CLR M16/M21 A3047 RMK AO2 SLP342 T11611211
Observed Flight Rules
Jan-22 @ 03:53 UTC (21 minutes ago) Visual Flight Rules
Wind Visibility Clouds
120° at 9 knots 10 miles
  • Clear skies
Temperatures Readings
Current -16°C / 3°F
Dewpoint -21°C / -6°F
Humidity 66%
Altimeter 30.47" Hg
Pressure 1034.2 hPa
Elevation 252
METAR KGSH 220353Z AUTO 12009KT 10SM CLR M16/M21 A3047 RMK AO2 SLP342 T11611211
Observed Flight Rules
Jan-22 @ 03:53 UTC
(21 minutes ago)
VFR
Wind Visibility
120° at 9 knots 10 miles
Clouds
  • Clear skies
Temperature Dewpoint
-16°C / 3°F -21°C / -6°F
Humidity Altimeter Pressure
66% 30.47" Hg 1034.2 hPa